sensor_id;sensor_type;location;lat;lon;timestamp;temperature;humidity
11656;DHT22;5884;43.618;1.438;2023-08-06T04:47:42;17.40;99.90
11656;DHT22;5884;43.618;1.438;2023-08-06T04:50:09;17.30;99.90
11656;DHT22;5884;43.618;1.438;2023-08-06T04:52:37;17.30;99.90
11656;DHT22;5884;43.618;1.438;2023-08-06T04:55:05;17.40;99.90
11656;DHT22;5884;43.618;1.438;2023-08-06T04:57:33;17.40;99.90
11656;DHT22;5884;43.618;1.438;2023-08-06T05:00:00;17.40;99.90
11656;DHT22;5884;43.618;1.438;2023-08-06T05:02:27;17.30;99.90
11656;DHT22;5884;43.618;1.438;2023-08-06T05:04:56;17.40;99.90
11656;DHT22;5884;43.618;1.438;2023-08-06T05:07:23;17.40;99.90
11656;DHT22;5884;43.618;1.438;2023-08-06T05:09:50;17.40;99.90
11656;DHT22;5884;43.618;1.438;2023-08-06T05:12:18;17.40;99.90
11656;DHT22;5884;43.618;1.438;2023-08-06T05:14:45;17.30;99.90
11656;DHT22;5884;43.618;1.438;2023-08-06T05:17:13;17.40;99.90
11656;DHT22;5884;43.618;1.438;2023-08-06T05:19:40;17.50;99.90
11656;DHT22;5884;43.618;1.438;2023-08-06T05:22:09;17.40;99.90
11656;DHT22;5884;43.618;1.438;2023-08-06T05:24:36;17.40;99.90
11656;DHT22;5884;43.618;1.438;2023-08-06T05:27:04;17.50;99.90
11656;DHT22;5884;43.618;1.438;2023-08-06T05:29:32;17.40;99.90
11656;DHT22;5884;43.618;1.438;2023-08-06T05:31:59;17.40;99.90
11656;DHT22;5884;43.618;1.438;2023-08-06T05:34:26;17.40;99.90
11656;DHT22;5884;43.618;1.438;2023-08-06T05:36:54;17.40;99.90
11656;DHT22;5884;43.618;1.438;2023-08-06T05:39:22;17.40;99.90
11656;DHT22;5884;43.618;1.438;2023-08-06T05:41:50;17.50;99.90
11656;DHT22;5884;43.618;1.438;2023-08-06T05:44:18;17.50;99.90
11656;DHT22;5884;43.618;1.438;2023-08-06T05:46:45;17.50;99.90
11656;DHT22;5884;43.618;1.438;2023-08-06T05:49:12;17.50;99.90
11656;DHT22;5884;43.618;1.438;2023-08-06T05:51:40;17.40;99.90
11656;DHT22;5884;43.618;1.438;2023-08-06T05:54:07;17.50;99.90
11656;DHT22;5884;43.618;1.438;2023-08-06T05:56:36;17.60;99.90
11656;DHT22;5884;43.618;1.438;2023-08-06T05:59:03;17.60;99.90
11656;DHT22;5884;43.618;1.438;2023-08-06T06:01:30;17.60;99.90
11656;DHT22;5884;43.618;1.438;2023-08-06T06:03:58;17.60;99.90
11656;DHT22;5884;43.618;1.438;2023-08-06T06:06:25;17.60;99.90
11656;DHT22;5884;43.618;1.438;2023-08-06T06:08:52;17.60;99.90
11656;DHT22;5884;43.618;1.438;2023-08-06T06:11:19;17.60;99.90
11656;DHT22;5884;43.618;1.438;2023-08-06T06:13:50;17.50;99.90
11656;DHT22;5884;43.618;1.438;2023-08-06T06:16:18;17.60;99.90
11656;DHT22;5884;43.618;1.438;2023-08-06T06:18:45;17.70;99.90
11656;DHT22;5884;43.618;1.438;2023-08-06T06:21:12;17.70;99.90
11656;DHT22;5884;43.618;1.438;2023-08-06T06:23:40;17.70;99.90
11656;DHT22;5884;43.618;1.438;2023-08-06T06:26:07;17.70;99.90
11656;DHT22;5884;43.618;1.438;2023-08-06T06:28:35;17.70;99.90
11656;DHT22;5884;43.618;1.438;2023-08-06T06:31:04;17.70;99.90
11656;DHT22;5884;43.618;1.438;2023-08-06T06:33:31;17.60;99.90
11656;DHT22;5884;43.618;1.438;2023-08-06T06:35:59;17.60;99.90
11656;DHT22;5884;43.618;1.438;2023-08-06T06:38:28;17.60;99.90
11656;DHT22;5884;43.618;1.438;2023-08-06T06:40:56;17.60;99.90
11656;DHT22;5884;43.618;1.438;2023-08-06T06:43:24;17.70;99.90
11656;DHT22;5884;43.618;1.438;2023-08-06T06:45:56;17.60;99.90
11656;DHT22;5884;43.618;1.438;2023-08-06T06:48:26;17.70;99.90
11656;DHT22;5884;43.618;1.438;2023-08-06T06:50:54;17.70;99.90
11656;DHT22;5884;43.618;1.438;2023-08-06T06:53:21;17.80;99.90
11656;DHT22;5884;43.618;1.438;2023-08-06T06:55:53;17.80;99.90
11656;DHT22;5884;43.618;1.438;2023-08-06T06:58:20;17.80;99.90
11656;DHT22;5884;43.618;1.438;2023-08-06T07:00:47;17.80;99.90
11656;DHT22;5884;43.618;1.438;2023-08-06T07:03:15;17.80;99.90
11656;DHT22;5884;43.618;1.438;2023-08-06T07:05:44;18.00;99.90
11656;DHT22;5884;43.618;1.438;2023-08-06T07:08:11;18.10;99.90
11656;DHT22;5884;43.618;1.438;2023-08-06T07:10:40;18.20;99.90
11656;DHT22;5884;43.618;1.438;2023-08-06T07:13:08;18.30;99.90
11656;DHT22;5884;43.618;1.438;2023-08-06T07:15:35;18.40;99.90
11656;DHT22;5884;43.618;1.438;2023-08-06T07:18:03;18.30;99.90
11656;DHT22;5884;43.618;1.438;2023-08-06T07:20:30;18.40;99.90
11656;DHT22;5884;43.618;1.438;2023-08-06T07:23:00;18.40;99.90
11656;DHT22;5884;43.618;1.438;2023-08-06T07:25:28;18.50;99.90
11656;DHT22;5884;43.618;1.438;2023-08-06T07:27:55;18.40;99.90
11656;DHT22;5884;43.618;1.438;2023-08-06T07:30:23;18.60;99.90
11656;DHT22;5884;43.618;1.438;2023-08-06T07:32:50;18.70;99.90
11656;DHT22;5884;43.618;1.438;2023-08-06T07:35:17;18.80;99.90
11656;DHT22;5884;43.618;1.438;2023-08-06T07:37:45;18.90;99.90
11656;DHT22;5884;43.618;1.438;2023-08-06T07:40:13;18.80;99.90
11656;DHT22;5884;43.618;1.438;2023-08-06T07:42:41;18.70;99.90
11656;DHT22;5884;43.618;1.438;2023-08-06T07:45:09;18.90;99.90
11656;DHT22;5884;43.618;1.438;2023-08-06T07:47:36;18.90;99.90
11656;DHT22;5884;43.618;1.438;2023-08-06T07:50:04;19.00;99.90
11656;DHT22;5884;43.618;1.438;2023-08-06T07:52:32;19.00;99.90
11656;DHT22;5884;43.618;1.438;2023-08-06T07:54:59;18.90;99.90
11656;DHT22;5884;43.618;1.438;2023-08-06T07:57:32;19.00;99.90
11656;DHT22;5884;43.618;1.438;2023-08-06T07:59:59;19.00;99.90
11656;DHT22;5884;43.618;1.438;2023-08-06T08:02:27;19.10;99.90
11656;DHT22;5884;43.618;1.438;2023-08-06T08:04:55;19.00;99.90
11656;DHT22;5884;43.618;1.438;2023-08-06T08:07:23;19.10;99.90
11656;DHT22;5884;43.618;1.438;2023-08-06T08:09:50;19.30;99.90
11656;DHT22;5884;43.618;1.438;2023-08-06T08:12:18;19.40;99.90
11656;DHT22;5884;43.618;1.438;2023-08-06T08:14:46;19.60;99.90
11656;DHT22;5884;43.618;1.438;2023-08-06T08:17:13;19.70;99.90
11656;DHT22;5884;43.618;1.438;2023-08-06T08:19:41;19.70;99.90
11656;DHT22;5884;43.618;1.438;2023-08-06T08:22:08;19.80;99.90
11656;DHT22;5884;43.618;1.438;2023-08-06T08:24:36;19.80;99.90
11656;DHT22;5884;43.618;1.438;2023-08-06T08:27:03;19.90;99.90
11656;DHT22;5884;43.618;1.438;2023-08-06T08:29:31;19.90;99.90
11656;DHT22;5884;43.618;1.438;2023-08-06T08:32:00;19.80;99.90
11656;DHT22;5884;43.618;1.438;2023-08-06T08:34:27;19.90;99.90
11656;DHT22;5884;43.618;1.438;2023-08-06T08:36:54;19.70;99.90
11656;DHT22;5884;43.618;1.438;2023-08-06T08:39:21;19.90;99.90
11656;DHT22;5884;43.618;1.438;2023-08-06T08:41:49;19.90;99.90
11656;DHT22;5884;43.618;1.438;2023-08-06T08:44:16;20.00;99.90
11656;DHT22;5884;43.618;1.438;2023-08-06T08:46:44;19.90;99.90
11656;DHT22;5884;43.618;1.438;2023-08-06T08:49:14;20.20;99.90
11656;DHT22;5884;43.618;1.438;2023-08-06T08:51:43;20.40;99.90
11656;DHT22;5884;43.618;1.438;2023-08-06T08:54:12;20.40;99.90
11656;DHT22;5884;43.618;1.438;2023-08-06T08:56:40;20.40;99.90
11656;DHT22;5884;43.618;1.438;2023-08-06T08:59:07;20.10;99.90
11656;DHT22;5884;43.618;1.438;2023-08-06T09:01:35;20.20;99.90
11656;DHT22;5884;43.618;1.438;2023-08-06T09:04:03;20.30;99.90
11656;DHT22;5884;43.618;1.438;2023-08-06T09:06:35;20.30;99.90
11656;DHT22;5884;43.618;1.438;2023-08-06T09:09:08;20.20;99.90
11656;DHT22;5884;43.618;1.438;2023-08-06T09:11:43;20.40;99.90
11656;DHT22;5884;43.618;1.438;2023-08-06T09:14:11;20.50;99.90
11656;DHT22;5884;43.618;1.438;2023-08-06T09:16:38;20.30;99.90
11656;DHT22;5884;43.618;1.438;2023-08-06T09:19:09;20.30;99.90
11656;DHT22;5884;43.618;1.438;2023-08-06T09:21:39;20.20;99.90
11656;DHT22;5884;43.618;1.438;2023-08-06T09:24:10;20.20;99.90
11656;DHT22;5884;43.618;1.438;2023-08-06T09:26:40;20.10;99.90
11656;DHT22;5884;43.618;1.438;2023-08-06T09:29:08;20.20;99.90
11656;DHT22;5884;43.618;1.438;2023-08-06T09:31:40;20.40;99.90
11656;DHT22;5884;43.618;1.438;2023-08-06T09:34:11;20.50;99.90
11656;DHT22;5884;43.618;1.438;2023-08-06T09:36:41;20.60;99.90
11656;DHT22;5884;43.618;1.438;2023-08-06T09:39:15;20.50;99.90
11656;DHT22;5884;43.618;1.438;2023-08-06T09:41:44;20.60;99.90
11656;DHT22;5884;43.618;1.438;2023-08-06T09:44:16;20.20;99.90
11656;DHT22;5884;43.618;1.438;2023-08-06T09:46:47;20.20;99.90
11656;DHT22;5884;43.618;1.438;2023-08-06T09:49:15;20.30;99.90
11656;DHT22;5884;43.618;1.438;2023-08-06T09:51:44;20.30;99.90
11656;DHT22;5884;43.618;1.438;2023-08-06T09:54:12;20.30;99.90
11656;DHT22;5884;43.618;1.438;2023-08-06T09:56:42;20.50;99.90
11656;DHT22;5884;43.618;1.438;2023-08-06T09:59:09;20.70;99.90
11656;DHT22;5884;43.618;1.438;2023-08-06T10:01:37;20.90;99.90
11656;DHT22;5884;43.618;1.438;2023-08-06T10:04:06;21.00;99.90
11656;DHT22;5884;43.618;1.438;2023-08-06T10:06:35;21.20;99.90
11656;DHT22;5884;43.618;1.438;2023-08-06T10:09:04;20.90;99.90
11656;DHT22;5884;43.618;1.438;2023-08-06T10:11:31;20.50;99.90
11656;DHT22;5884;43.618;1.438;2023-08-06T10:14:04;20.60;99.90
11656;DHT22;5884;43.618;1.438;2023-08-06T10:16:34;20.70;99.90
11656;DHT22;5884;43.618;1.438;2023-08-06T10:19:04;20.60;99.90
11656;DHT22;5884;43.618;1.438;2023-08-06T10:21:32;20.80;99.90
11656;DHT22;5884;43.618;1.438;2023-08-06T10:23:59;21.40;99.90
11656;DHT22;5884;43.618;1.438;2023-08-06T10:26:28;21.40;99.90
11656;DHT22;5884;43.618;1.438;2023-08-06T10:28:56;21.30;99.90
11656;DHT22;5884;43.618;1.438;2023-08-06T10:31:53;21.20;99.90
11656;DHT22;5884;43.618;1.438;2023-08-06T10:34:20;21.30;99.90
11656;DHT22;5884;43.618;1.438;2023-08-06T10:36:48;21.20;99.90
11656;DHT22;5884;43.618;1.438;2023-08-06T10:39:15;21.30;99.90
11656;DHT22;5884;43.618;1.438;2023-08-06T10:41:44;21.30;99.90
11656;DHT22;5884;43.618;1.438;2023-08-06T10:44:11;21.20;99.90
11656;DHT22;5884;43.618;1.438;2023-08-06T10:46:39;21.40;99.90
11656;DHT22;5884;43.618;1.438;2023-08-06T10:49:06;21.40;99.90
11656;DHT22;5884;43.618;1.438;2023-08-06T10:51:34;21.50;99.90
11656;DHT22;5884;43.618;1.438;2023-08-06T10:54:02;21.70;99.90
11656;DHT22;5884;43.618;1.438;2023-08-06T10:56:30;21.60;99.90
11656;DHT22;5884;43.618;1.438;2023-08-06T10:58:59;21.60;99.90
11656;DHT22;5884;43.618;1.438;2023-08-06T11:01:28;21.70;99.90
11656;DHT22;5884;43.618;1.438;2023-08-06T11:04:00;21.90;99.90
11656;DHT22;5884;43.618;1.438;2023-08-06T11:06:28;22.20;99.90
11656;DHT22;5884;43.618;1.438;2023-08-06T11:08:55;22.60;99.90
11656;DHT22;5884;43.618;1.438;2023-08-06T11:11:23;22.60;99.90
11656;DHT22;5884;43.618;1.438;2023-08-06T11:13:51;22.30;99.90
11656;DHT22;5884;43.618;1.438;2023-08-06T11:16:22;22.00;99.90
11656;DHT22;5884;43.618;1.438;2023-08-06T11:18:50;21.90;99.90
11656;DHT22;5884;43.618;1.438;2023-08-06T11:21:19;21.90;99.90
11656;DHT22;5884;43.618;1.438;2023-08-06T11:23:47;21.60;99.90
11656;DHT22;5884;43.618;1.438;2023-08-06T11:26:18;21.50;99.90
11656;DHT22;5884;43.618;1.438;2023-08-06T11:28:46;21.70;99.90
11656;DHT22;5884;43.618;1.438;2023-08-06T11:31:20;21.90;99.90
11656;DHT22;5884;43.618;1.438;2023-08-06T11:33:47;21.90;99.90
11656;DHT22;5884;43.618;1.438;2023-08-06T11:36:15;22.00;99.90
11656;DHT22;5884;43.618;1.438;2023-08-06T11:38:42;22.30;99.90
11656;DHT22;5884;43.618;1.438;2023-08-06T11:41:09;22.40;99.90
11656;DHT22;5884;43.618;1.438;2023-08-06T11:43:36;22.00;99.90
11656;DHT22;5884;43.618;1.438;2023-08-06T11:46:04;21.80;99.90
11656;DHT22;5884;43.618;1.438;2023-08-06T11:48:33;22.10;99.90
11656;DHT22;5884;43.618;1.438;2023-08-06T11:51:17;22.30;99.90
11656;DHT22;5884;43.618;1.438;2023-08-06T11:53:48;22.10;99.90
11656;DHT22;5884;43.618;1.438;2023-08-06T11:56:16;21.90;99.90
11656;DHT22;5884;43.618;1.438;2023-08-06T11:58:43;22.00;99.90
11656;DHT22;5884;43.618;1.438;2023-08-06T12:01:11;22.00;99.90
11656;DHT22;5884;43.618;1.438;2023-08-06T12:03:40;22.20;99.90
11656;DHT22;5884;43.618;1.438;2023-08-06T12:06:08;22.20;99.90
11656;DHT22;5884;43.618;1.438;2023-08-06T12:08:35;22.20;99.90
11656;DHT22;5884;43.618;1.438;2023-08-06T12:11:03;22.10;99.90
11656;DHT22;5884;43.618;1.438;2023-08-06T12:13:31;22.40;99.90
11656;DHT22;5884;43.618;1.438;2023-08-06T12:15:58;22.10;99.90
11656;DHT22;5884;43.618;1.438;2023-08-06T12:18:25;22.30;99.90
11656;DHT22;5884;43.618;1.438;2023-08-06T12:20:54;22.40;99.90
11656;DHT22;5884;43.618;1.438;2023-08-06T12:23:21;22.60;99.90
11656;DHT22;5884;43.618;1.438;2023-08-06T12:25:48;22.90;99.90
11656;DHT22;5884;43.618;1.438;2023-08-06T12:28:16;23.30;99.90
11656;DHT22;5884;43.618;1.438;2023-08-06T12:30:43;23.30;99.90
11656;DHT22;5884;43.618;1.438;2023-08-06T12:33:11;22.70;99.90
11656;DHT22;5884;43.618;1.438;2023-08-06T12:35:38;22.60;99.90
11656;DHT22;5884;43.618;1.438;2023-08-06T12:38:07;22.70;99.90
11656;DHT22;5884;43.618;1.438;2023-08-06T12:40:34;22.80;99.90
11656;DHT22;5884;43.618;1.438;2023-08-06T12:43:02;22.80;99.90
11656;DHT22;5884;43.618;1.438;2023-08-06T12:45:29;22.70;99.90
11656;DHT22;5884;43.618;1.438;2023-08-06T12:47:56;22.30;99.90
11656;DHT22;5884;43.618;1.438;2023-08-06T12:50:23;22.30;99.90
11656;DHT22;5884;43.618;1.438;2023-08-06T12:52:51;22.80;99.90
11656;DHT22;5884;43.618;1.438;2023-08-06T12:55:20;23.30;99.90
11656;DHT22;5884;43.618;1.438;2023-08-06T12:57:47;23.60;99.90
11656;DHT22;5884;43.618;1.438;2023-08-06T13:00:15;23.70;99.90
11656;DHT22;5884;43.618;1.438;2023-08-06T13:02:43;23.50;99.90
11656;DHT22;5884;43.618;1.438;2023-08-06T13:05:11;23.30;99.90
11656;DHT22;5884;43.618;1.438;2023-08-06T13:07:38;23.10;99.90
11656;DHT22;5884;43.618;1.438;2023-08-06T13:10:06;23.10;99.90
11656;DHT22;5884;43.618;1.438;2023-08-06T13:12:35;22.90;99.90
11656;DHT22;5884;43.618;1.438;2023-08-06T13:15:03;23.00;99.90
11656;DHT22;5884;43.618;1.438;2023-08-06T13:17:33;23.00;99.90
11656;DHT22;5884;43.618;1.438;2023-08-06T13:20:00;23.10;99.90
11656;DHT22;5884;43.618;1.438;2023-08-06T13:22:29;23.00;99.90
11656;DHT22;5884;43.618;1.438;2023-08-06T13:24:57;23.10;99.90
11656;DHT22;5884;43.618;1.438;2023-08-06T13:27:24;23.00;99.90
11656;DHT22;5884;43.618;1.438;2023-08-06T13:29:52;23.00;99.90
11656;DHT22;5884;43.618;1.438;2023-08-06T13:32:20;23.00;99.90
11656;DHT22;5884;43.618;1.438;2023-08-06T13:34:47;23.20;99.90
11656;DHT22;5884;43.618;1.438;2023-08-06T13:37:14;22.90;99.90
11656;DHT22;5884;43.618;1.438;2023-08-06T13:39:42;23.00;99.90
11656;DHT22;5884;43.618;1.438;2023-08-06T13:42:09;23.10;99.90
11656;DHT22;5884;43.618;1.438;2023-08-06T13:44:36;23.00;99.90
11656;DHT22;5884;43.618;1.438;2023-08-06T13:47:05;22.80;99.90
11656;DHT22;5884;43.618;1.438;2023-08-06T13:49:32;22.70;99.90
11656;DHT22;5884;43.618;1.438;2023-08-06T13:51:59;23.10;99.90
11656;DHT22;5884;43.618;1.438;2023-08-06T13:54:27;23.40;99.90
11656;DHT22;5884;43.618;1.438;2023-08-06T13:56:54;24.00;99.90
11656;DHT22;5884;43.618;1.438;2023-08-06T13:59:21;24.00;99.90
11656;DHT22;5884;43.618;1.438;2023-08-06T14:01:50;23.80;99.90
11656;DHT22;5884;43.618;1.438;2023-08-06T14:04:20;23.90;99.90
11656;DHT22;5884;43.618;1.438;2023-08-06T14:06:47;24.00;99.90
11656;DHT22;5884;43.618;1.438;2023-08-06T14:09:15;24.20;99.90
11656;DHT22;5884;43.618;1.438;2023-08-06T14:11:44;24.10;99.90
11656;DHT22;5884;43.618;1.438;2023-08-06T14:14:11;23.90;99.90
11656;DHT22;5884;43.618;1.438;2023-08-06T14:16:39;24.00;99.90
11656;DHT22;5884;43.618;1.438;2023-08-06T14:19:06;24.20;99.90
11656;DHT22;5884;43.618;1.438;2023-08-06T14:21:35;24.10;99.90
11656;DHT22;5884;43.618;1.438;2023-08-06T14:24:03;23.60;99.90
11656;DHT22;5884;43.618;1.438;2023-08-06T14:26:30;23.50;99.90
11656;DHT22;5884;43.618;1.438;2023-08-06T14:28:57;23.40;99.90
11656;DHT22;5884;43.618;1.438;2023-08-06T14:31:25;23.30;99.90
11656;DHT22;5884;43.618;1.438;2023-08-06T14:33:52;23.30;99.90
11656;DHT22;5884;43.618;1.438;2023-08-06T14:36:19;23.60;99.90
11656;DHT22;5884;43.618;1.438;2023-08-06T14:38:48;23.80;99.90
11656;DHT22;5884;43.618;1.438;2023-08-06T14:41:15;23.50;99.90
11656;DHT22;5884;43.618;1.438;2023-08-06T14:43:43;23.60;99.90
11656;DHT22;5884;43.618;1.438;2023-08-06T14:46:10;23.50;99.90
11656;DHT22;5884;43.618;1.438;2023-08-06T14:48:37;23.20;99.90
11656;DHT22;5884;43.618;1.438;2023-08-06T14:51:05;23.20;99.90
11656;DHT22;5884;43.618;1.438;2023-08-06T14:53:32;23.40;99.90
11656;DHT22;5884;43.618;1.438;2023-08-06T14:56:01;23.60;99.90
11656;DHT22;5884;43.618;1.438;2023-08-06T14:58:28;23.50;99.90
11656;DHT22;5884;43.618;1.438;2023-08-06T15:00:55;23.40;99.90
11656;DHT22;5884;43.618;1.438;2023-08-06T15:03:22;23.30;99.90
11656;DHT22;5884;43.618;1.438;2023-08-06T15:05:50;23.40;99.90
11656;DHT22;5884;43.618;1.438;2023-08-06T15:08:17;23.50;99.90
11656;DHT22;5884;43.618;1.438;2023-08-06T15:10:49;23.80;99.90
11656;DHT22;5884;43.618;1.438;2023-08-06T15:13:19;23.50;99.90
11656;DHT22;5884;43.618;1.438;2023-08-06T15:15:47;23.20;99.90
11656;DHT22;5884;43.618;1.438;2023-08-06T15:18:15;22.90;99.90
11656;DHT22;5884;43.618;1.438;2023-08-06T15:20:42;22.80;99.90
11656;DHT22;5884;43.618;1.438;2023-08-06T15:23:09;23.20;99.90
11656;DHT22;5884;43.618;1.438;2023-08-06T15:25:37;23.50;99.90
11656;DHT22;5884;43.618;1.438;2023-08-06T15:28:04;23.80;99.90
11656;DHT22;5884;43.618;1.438;2023-08-06T15:30:34;23.90;99.90
11656;DHT22;5884;43.618;1.438;2023-08-06T15:33:01;24.00;99.90
11656;DHT22;5884;43.618;1.438;2023-08-06T15:35:29;24.40;99.90
11656;DHT22;5884;43.618;1.438;2023-08-06T15:37:56;24.50;99.90
11656;DHT22;5884;43.618;1.438;2023-08-06T15:40:23;24.30;99.90
11656;DHT22;5884;43.618;1.438;2023-08-06T15:42:51;24.40;99.90
11656;DHT22;5884;43.618;1.438;2023-08-06T15:45:18;24.20;99.90
11656;DHT22;5884;43.618;1.438;2023-08-06T15:47:46;23.80;99.90
11656;DHT22;5884;43.618;1.438;2023-08-06T15:50:14;23.50;99.90
11656;DHT22;5884;43.618;1.438;2023-08-06T15:52:41;23.50;99.90
11656;DHT22;5884;43.618;1.438;2023-08-06T15:55:09;23.40;99.90
11656;DHT22;5884;43.618;1.438;2023-08-06T15:57:36;23.30;99.90
11656;DHT22;5884;43.618;1.438;2023-08-06T16:00:04;23.10;99.90
11656;DHT22;5884;43.618;1.438;2023-08-06T16:02:33;23.00;99.90
11656;DHT22;5884;43.618;1.438;2023-08-06T16:05:02;23.00;99.90
11656;DHT22;5884;43.618;1.438;2023-08-06T16:07:29;23.00;99.90
11656;DHT22;5884;43.618;1.438;2023-08-06T16:09:57;23.10;99.90
11656;DHT22;5884;43.618;1.438;2023-08-06T16:12:24;23.00;99.90
11656;DHT22;5884;43.618;1.438;2023-08-06T16:14:51;22.90;99.90
11656;DHT22;5884;43.618;1.438;2023-08-06T16:17:19;22.80;99.90
11656;DHT22;5884;43.618;1.438;2023-08-06T16:19:46;22.90;99.90
11656;DHT22;5884;43.618;1.438;2023-08-06T16:22:15;23.00;99.90
11656;DHT22;5884;43.618;1.438;2023-08-06T16:24:42;23.50;99.90
11656;DHT22;5884;43.618;1.438;2023-08-06T16:27:09;23.70;99.90
11656;DHT22;5884;43.618;1.438;2023-08-06T16:29:36;23.60;99.90
11656;DHT22;5884;43.618;1.438;2023-08-06T16:32:05;23.50;99.90
11656;DHT22;5884;43.618;1.438;2023-08-06T16:34:32;23.50;99.90
11656;DHT22;5884;43.618;1.438;2023-08-06T16:37:00;23.20;99.90
11656;DHT22;5884;43.618;1.438;2023-08-06T16:39:30;23.00;99.90
11656;DHT22;5884;43.618;1.438;2023-08-06T16:41:58;23.00;99.90
11656;DHT22;5884;43.618;1.438;2023-08-06T16:44:25;23.30;99.90
11656;DHT22;5884;43.618;1.438;2023-08-06T16:46:56;23.40;99.90
11656;DHT22;5884;43.618;1.438;2023-08-06T16:49:23;23.50;99.90
11656;DHT22;5884;43.618;1.438;2023-08-06T16:51:50;23.40;99.90
11656;DHT22;5884;43.618;1.438;2023-08-06T16:54:18;23.50;99.90
11656;DHT22;5884;43.618;1.438;2023-08-06T16:56:46;23.60;99.90
11656;DHT22;5884;43.618;1.438;2023-08-06T16:59:14;23.40;99.90
11656;DHT22;5884;43.618;1.438;2023-08-06T17:01:41;23.30;99.90
11656;DHT22;5884;43.618;1.438;2023-08-06T17:04:08;23.10;99.90
11656;DHT22;5884;43.618;1.438;2023-08-06T17:06:37;23.10;99.90
11656;DHT22;5884;43.618;1.438;2023-08-06T17:09:04;23.20;99.90
11656;DHT22;5884;43.618;1.438;2023-08-06T17:11:31;23.20;99.90
11656;DHT22;5884;43.618;1.438;2023-08-06T17:14:00;23.10;99.90
11656;DHT22;5884;43.618;1.438;2023-08-06T17:16:27;22.90;99.90
11656;DHT22;5884;43.618;1.438;2023-08-06T17:18:55;22.80;99.90
11656;DHT22;5884;43.618;1.438;2023-08-06T17:21:22;22.60;99.90
11656;DHT22;5884;43.618;1.438;2023-08-06T17:23:50;22.60;99.90
11656;DHT22;5884;43.618;1.438;2023-08-06T17:26:17;22.60;99.90
11656;DHT22;5884;43.618;1.438;2023-08-06T17:28:44;22.60;99.90
11656;DHT22;5884;43.618;1.438;2023-08-06T17:31:13;22.60;99.90
11656;DHT22;5884;43.618;1.438;2023-08-06T17:33:40;22.60;99.90
11656;DHT22;5884;43.618;1.438;2023-08-06T17:36:08;22.60;99.90
11656;DHT22;5884;43.618;1.438;2023-08-06T17:38:35;22.60;99.90
11656;DHT22;5884;43.618;1.438;2023-08-06T17:41:02;22.70;99.90
11656;DHT22;5884;43.618;1.438;2023-08-06T17:43:30;22.80;99.90
11656;DHT22;5884;43.618;1.438;2023-08-06T17:45:57;22.90;99.90
11656;DHT22;5884;43.618;1.438;2023-08-06T17:48:27;22.90;99.90
11656;DHT22;5884;43.618;1.438;2023-08-06T17:50:55;22.90;99.90
11656;DHT22;5884;43.618;1.438;2023-08-06T17:53:22;23.00;99.90
11656;DHT22;5884;43.618;1.438;2023-08-06T17:55:50;22.80;99.90
11656;DHT22;5884;43.618;1.438;2023-08-06T17:58:17;22.60;99.90
11656;DHT22;5884;43.618;1.438;2023-08-06T18:00:44;22.50;99.90
11656;DHT22;5884;43.618;1.438;2023-08-06T18:03:14;22.50;99.90
11656;DHT22;5884;43.618;1.438;2023-08-06T18:05:44;22.40;99.90
11656;DHT22;5884;43.618;1.438;2023-08-06T18:08:11;22.30;99.90
11656;DHT22;5884;43.618;1.438;2023-08-06T18:10:38;22.30;99.90
11656;DHT22;5884;43.618;1.438;2023-08-06T18:13:05;22.20;99.90
11656;DHT22;5884;43.618;1.438;2023-08-06T18:15:35;22.20;99.90
11656;DHT22;5884;43.618;1.438;2023-08-06T18:18:02;22.20;99.90
11656;DHT22;5884;43.618;1.438;2023-08-06T18:20:29;22.10;99.90
11656;DHT22;5884;43.618;1.438;2023-08-06T18:22:58;22.00;99.90
11656;DHT22;5884;43.618;1.438;2023-08-06T18:25:25;22.00;99.90
11656;DHT22;5884;43.618;1.438;2023-08-06T18:27:52;22.00;99.90
11656;DHT22;5884;43.618;1.438;2023-08-06T18:30:20;22.00;99.90
11656;DHT22;5884;43.618;1.438;2023-08-06T18:32:47;21.90;99.90
11656;DHT22;5884;43.618;1.438;2023-08-06T18:35:14;21.90;99.90
11656;DHT22;5884;43.618;1.438;2023-08-06T18:37:42;21.80;99.90
11656;DHT22;5884;43.618;1.438;2023-08-06T18:40:11;21.70;99.90
11656;DHT22;5884;43.618;1.438;2023-08-06T18:42:38;21.70;99.90
11656;DHT22;5884;43.618;1.438;2023-08-06T18:45:07;21.70;99.90
11656;DHT22;5884;43.618;1.438;2023-08-06T18:47:35;21.60;99.90
11656;DHT22;5884;43.618;1.438;2023-08-06T18:50:02;21.60;99.90
11656;DHT22;5884;43.618;1.438;2023-08-06T18:52:30;21.60;99.90
11656;DHT22;5884;43.618;1.438;2023-08-06T18:54:57;21.50;99.90
11656;DHT22;5884;43.618;1.438;2023-08-06T18:57:26;21.50;99.90
11656;DHT22;5884;43.618;1.438;2023-08-06T18:59:55;21.50;99.90
11656;DHT22;5884;43.618;1.438;2023-08-06T19:02:22;21.50;99.90
11656;DHT22;5884;43.618;1.438;2023-08-06T19:04:49;21.40;99.90
11656;DHT22;5884;43.618;1.438;2023-08-06T19:07:17;21.40;99.90
11656;DHT22;5884;43.618;1.438;2023-08-06T19:09:44;21.30;99.90
11656;DHT22;5884;43.618;1.438;2023-08-06T19:12:12;21.30;99.90
11656;DHT22;5884;43.618;1.438;2023-08-06T19:14:42;21.30;99.90
11656;DHT22;5884;43.618;1.438;2023-08-06T19:17:09;21.20;99.90
11656;DHT22;5884;43.618;1.438;2023-08-06T19:19:36;21.10;99.90
11656;DHT22;5884;43.618;1.438;2023-08-06T19:22:09;21.10;99.90
11656;DHT22;5884;43.618;1.438;2023-08-06T19:24:36;21.00;99.90
11656;DHT22;5884;43.618;1.438;2023-08-06T19:27:04;21.00;99.90
11656;DHT22;5884;43.618;1.438;2023-08-06T19:29:31;21.00;99.90
11656;DHT22;5884;43.618;1.438;2023-08-06T19:32:00;21.00;99.90
11656;DHT22;5884;43.618;1.438;2023-08-06T19:34:28;20.90;99.90
11656;DHT22;5884;43.618;1.438;2023-08-06T19:36:55;20.90;99.90
11656;DHT22;5884;43.618;1.438;2023-08-06T19:39:23;20.80;99.90
11656;DHT22;5884;43.618;1.438;2023-08-06T19:41:50;20.80;99.90
11656;DHT22;5884;43.618;1.438;2023-08-06T19:44:17;20.70;99.90
11656;DHT22;5884;43.618;1.438;2023-08-06T19:46:45;20.70;99.90
11656;DHT22;5884;43.618;1.438;2023-08-06T19:49:13;20.70;99.90
11656;DHT22;5884;43.618;1.438;2023-08-06T19:51:41;20.70;99.90
11656;DHT22;5884;43.618;1.438;2023-08-06T19:54:09;20.60;99.90
11656;DHT22;5884;43.618;1.438;2023-08-06T19:56:37;20.60;99.90
11656;DHT22;5884;43.618;1.438;2023-08-06T19:59:04;20.60;99.90
11656;DHT22;5884;43.618;1.438;2023-08-06T20:01:31;20.60;99.90
11656;DHT22;5884;43.618;1.438;2023-08-06T20:03:59;20.60;99.90
11656;DHT22;5884;43.618;1.438;2023-08-06T20:06:28;20.60;99.90
11656;DHT22;5884;43.618;1.438;2023-08-06T20:08:55;20.60;99.90
11656;DHT22;5884;43.618;1.438;2023-08-06T20:11:23;20.50;99.90
11656;DHT22;5884;43.618;1.438;2023-08-06T20:13:50;20.50;99.90
11656;DHT22;5884;43.618;1.438;2023-08-06T20:16:17;20.50;99.90
11656;DHT22;5884;43.618;1.438;2023-08-06T20:18:45;20.40;99.90
11656;DHT22;5884;43.618;1.438;2023-08-06T20:21:12;20.40;99.90
11656;DHT22;5884;43.618;1.438;2023-08-06T20:23:41;20.30;99.90
11656;DHT22;5884;43.618;1.438;2023-08-06T20:26:08;20.30;99.90
11656;DHT22;5884;43.618;1.438;2023-08-06T20:28:36;20.20;99.90
11656;DHT22;5884;43.618;1.438;2023-08-06T20:31:03;20.20;99.90
11656;DHT22;5884;43.618;1.438;2023-08-06T20:33:31;20.10;99.90
11656;DHT22;5884;43.618;1.438;2023-08-06T20:35:59;20.00;99.90